sensor_id;sensor_type;location;lat;lon;timestamp;P1;durP1;ratioP1;P2;durP2;ratioP2
15398;SDS011;7797;51.428;6.756;2023-04-26T00:00:48;11.27;;;3.43;;
15398;SDS011;7797;51.428;6.756;2023-04-26T00:03:15;8.90;;;3.10;;
15398;SDS011;7797;51.428;6.756;2023-04-26T00:05:43;7.03;;;3.03;;
15398;SDS011;7797;51.428;6.756;2023-04-26T00:08:10;7.60;;;3.00;;
15398;SDS011;7797;51.428;6.756;2023-04-26T00:10:36;8.23;;;3.50;;
15398;SDS011;7797;51.428;6.756;2023-04-26T00:13:03;6.90;;;3.07;;
15398;SDS011;7797;51.428;6.756;2023-04-26T00:15:30;8.00;;;3.40;;
15398;SDS011;7797;51.428;6.756;2023-04-26T00:17:57;8.83;;;3.13;;
15398;SDS011;7797;51.428;6.756;2023-04-26T00:20:24;6.37;;;3.20;;
15398;SDS011;7797;51.428;6.756;2023-04-26T00:22:50;5.67;;;3.10;;
15398;SDS011;7797;51.428;6.756;2023-04-26T00:25:17;8.17;;;2.80;;
15398;SDS011;7797;51.428;6.756;2023-04-26T00:27:44;5.73;;;3.17;;
15398;SDS011;7797;51.428;6.756;2023-04-26T00:30:11;6.53;;;3.17;;
15398;SDS011;7797;51.428;6.756;2023-04-26T00:32:38;7.03;;;3.50;;
15398;SDS011;7797;51.428;6.756;2023-04-26T00:35:05;6.07;;;3.60;;
15398;SDS011;7797;51.428;6.756;2023-04-26T00:37:32;4.97;;;3.23;;
15398;SDS011;7797;51.428;6.756;2023-04-26T00:39:59;10.73;;;3.70;;
15398;SDS011;7797;51.428;6.756;2023-04-26T00:42:26;9.03;;;3.47;;
15398;SDS011;7797;51.428;6.756;2023-04-26T00:44:52;6.33;;;3.67;;
15398;SDS011;7797;51.428;6.756;2023-04-26T00:47:26;7.03;;;3.63;;
15398;SDS011;7797;51.428;6.756;2023-04-26T00:49:55;9.17;;;3.50;;
15398;SDS011;7797;51.428;6.756;2023-04-26T00:52:22;7.90;;;3.80;;
15398;SDS011;7797;51.428;6.756;2023-04-26T00:54:49;7.40;;;3.70;;
15398;SDS011;7797;51.428;6.756;2023-04-26T00:57:16;6.73;;;3.40;;
15398;SDS011;7797;51.428;6.756;2023-04-26T00:59:43;6.43;;;3.60;;
15398;SDS011;7797;51.428;6.756;2023-04-26T01:02:10;5.90;;;3.93;;
15398;SDS011;7797;51.428;6.756;2023-04-26T01:04:36;3.67;;;3.20;;
15398;SDS011;7797;51.428;6.756;2023-04-26T01:07:05;6.10;;;3.47;;
15398;SDS011;7797;51.428;6.756;2023-04-26T01:09:31;7.93;;;3.53;;
15398;SDS011;7797;51.428;6.756;2023-04-26T01:11:59;10.17;;;4.20;;
15398;SDS011;7797;51.428;6.756;2023-04-26T01:14:26;7.23;;;3.80;;
15398;SDS011;7797;51.428;6.756;2023-04-26T01:16:54;8.10;;;3.80;;
15398;SDS011;7797;51.428;6.756;2023-04-26T01:19:22;4.43;;;3.33;;
15398;SDS011;7797;51.428;6.756;2023-04-26T01:21:49;5.80;;;3.23;;
15398;SDS011;7797;51.428;6.756;2023-04-26T01:24:16;4.67;;;2.97;;
15398;SDS011;7797;51.428;6.756;2023-04-26T01:26:43;4.73;;;3.30;;
15398;SDS011;7797;51.428;6.756;2023-04-26T01:29:13;4.97;;;3.23;;
15398;SDS011;7797;51.428;6.756;2023-04-26T01:31:44;5.43;;;3.10;;
15398;SDS011;7797;51.428;6.756;2023-04-26T01:34:12;5.53;;;3.43;;
15398;SDS011;7797;51.428;6.756;2023-04-26T01:36:39;7.03;;;4.07;;
15398;SDS011;7797;51.428;6.756;2023-04-26T01:39:06;6.30;;;3.20;;
15398;SDS011;7797;51.428;6.756;2023-04-26T01:41:34;4.33;;;3.20;;
15398;SDS011;7797;51.428;6.756;2023-04-26T01:44:01;7.00;;;3.93;;
15398;SDS011;7797;51.428;6.756;2023-04-26T01:46:27;4.70;;;3.30;;
15398;SDS011;7797;51.428;6.756;2023-04-26T01:48:54;6.53;;;3.20;;
15398;SDS011;7797;51.428;6.756;2023-04-26T01:51:22;7.13;;;3.60;;
15398;SDS011;7797;51.428;6.756;2023-04-26T01:53:49;9.07;;;3.83;;
15398;SDS011;7797;51.428;6.756;2023-04-26T01:56:16;4.00;;;3.00;;
15398;SDS011;7797;51.428;6.756;2023-04-26T01:58:43;7.97;;;3.53;;
15398;SDS011;7797;51.428;6.756;2023-04-26T02:01:10;7.90;;;4.43;;
15398;SDS011;7797;51.428;6.756;2023-04-26T02:03:37;6.77;;;3.90;;
15398;SDS011;7797;51.428;6.756;2023-04-26T02:06:04;7.40;;;4.07;;
15398;SDS011;7797;51.428;6.756;2023-04-26T02:08:31;7.60;;;4.00;;
15398;SDS011;7797;51.428;6.756;2023-04-26T02:10:58;4.23;;;3.70;;
15398;SDS011;7797;51.428;6.756;2023-04-26T02:13:24;5.50;;;3.70;;
15398;SDS011;7797;51.428;6.756;2023-04-26T02:15:51;8.00;;;4.27;;
15398;SDS011;7797;51.428;6.756;2023-04-26T02:18:18;9.43;;;4.10;;
15398;SDS011;7797;51.428;6.756;2023-04-26T02:20:47;5.83;;;4.17;;
15398;SDS011;7797;51.428;6.756;2023-04-26T02:23:14;7.33;;;4.30;;
15398;SDS011;7797;51.428;6.756;2023-04-26T02:25:41;6.03;;;4.23;;
15398;SDS011;7797;51.428;6.756;2023-04-26T02:28:11;6.90;;;4.67;;
15398;SDS011;7797;51.428;6.756;2023-04-26T02:30:37;7.17;;;4.47;;
15398;SDS011;7797;51.428;6.756;2023-04-26T02:33:05;7.93;;;4.80;;
15398;SDS011;7797;51.428;6.756;2023-04-26T02:35:31;7.87;;;4.70;;
15398;SDS011;7797;51.428;6.756;2023-04-26T02:37:58;7.50;;;5.03;;
15398;SDS011;7797;51.428;6.756;2023-04-26T02:40:25;9.80;;;4.87;;
15398;SDS011;7797;51.428;6.756;2023-04-26T02:42:51;7.47;;;4.20;;
15398;SDS011;7797;51.428;6.756;2023-04-26T02:45:18;9.50;;;4.27;;
15398;SDS011;7797;51.428;6.756;2023-04-26T02:47:45;9.03;;;4.43;;
15398;SDS011;7797;51.428;6.756;2023-04-26T02:50:12;9.77;;;4.87;;
15398;SDS011;7797;51.428;6.756;2023-04-26T02:52:38;6.23;;;4.53;;
15398;SDS011;7797;51.428;6.756;2023-04-26T02:55:05;6.17;;;4.90;;
15398;SDS011;7797;51.428;6.756;2023-04-26T02:57:32;8.23;;;5.37;;
15398;SDS011;7797;51.428;6.756;2023-04-26T02:59:59;11.07;;;6.10;;
15398;SDS011;7797;51.428;6.756;2023-04-26T03:02:26;11.73;;;6.63;;
15398;SDS011;7797;51.428;6.756;2023-04-26T03:04:54;9.73;;;6.40;;
15398;SDS011;7797;51.428;6.756;2023-04-26T03:07:21;11.17;;;6.33;;
15398;SDS011;7797;51.428;6.756;2023-04-26T03:09:48;16.30;;;7.20;;
15398;SDS011;7797;51.428;6.756;2023-04-26T03:12:14;13.43;;;6.60;;
15398;SDS011;7797;51.428;6.756;2023-04-26T03:14:41;11.00;;;5.83;;
15398;SDS011;7797;51.428;6.756;2023-04-26T03:17:08;14.30;;;6.90;;
15398;SDS011;7797;51.428;6.756;2023-04-26T03:19:35;12.63;;;8.30;;
15398;SDS011;7797;51.428;6.756;2023-04-26T03:22:01;12.60;;;6.87;;
15398;SDS011;7797;51.428;6.756;2023-04-26T03:24:34;8.87;;;5.20;;
15398;SDS011;7797;51.428;6.756;2023-04-26T03:27:01;12.93;;;5.77;;
15398;SDS011;7797;51.428;6.756;2023-04-26T03:29:28;8.63;;;4.70;;
15398;SDS011;7797;51.428;6.756;2023-04-26T03:31:54;11.10;;;5.50;;
15398;SDS011;7797;51.428;6.756;2023-04-26T03:34:21;12.23;;;6.03;;
15398;SDS011;7797;51.428;6.756;2023-04-26T03:36:48;9.37;;;5.30;;
15398;SDS011;7797;51.428;6.756;2023-04-26T03:39:15;7.80;;;5.50;;
15398;SDS011;7797;51.428;6.756;2023-04-26T03:41:41;10.47;;;5.80;;
15398;SDS011;7797;51.428;6.756;2023-04-26T03:44:08;9.40;;;5.87;;
15398;SDS011;7797;51.428;6.756;2023-04-26T03:46:35;8.00;;;5.77;;
15398;SDS011;7797;51.428;6.756;2023-04-26T03:49:02;8.70;;;5.57;;
15398;SDS011;7797;51.428;6.756;2023-04-26T03:51:28;8.03;;;5.77;;
15398;SDS011;7797;51.428;6.756;2023-04-26T03:53:57;7.50;;;6.27;;
15398;SDS011;7797;51.428;6.756;2023-04-26T03:56:24;7.63;;;6.43;;
15398;SDS011;7797;51.428;6.756;2023-04-26T03:58:51;8.63;;;6.07;;
15398;SDS011;7797;51.428;6.756;2023-04-26T04:01:18;6.53;;;5.83;;
15398;SDS011;7797;51.428;6.756;2023-04-26T04:03:45;7.77;;;6.30;;
15398;SDS011;7797;51.428;6.756;2023-04-26T04:06:13;11.77;;;7.20;;
15398;SDS011;7797;51.428;6.756;2023-04-26T04:08:39;10.37;;;6.63;;
15398;SDS011;7797;51.428;6.756;2023-04-26T04:11:06;9.20;;;6.70;;
15398;SDS011;7797;51.428;6.756;2023-04-26T04:13:33;9.60;;;6.57;;
15398;SDS011;7797;51.428;6.756;2023-04-26T04:16:00;10.20;;;6.03;;
15398;SDS011;7797;51.428;6.756;2023-04-26T04:18:26;11.07;;;6.40;;
15398;SDS011;7797;51.428;6.756;2023-04-26T04:20:53;9.23;;;6.30;;
15398;SDS011;7797;51.428;6.756;2023-04-26T04:23:20;11.93;;;6.40;;
15398;SDS011;7797;51.428;6.756;2023-04-26T04:25:47;10.73;;;6.70;;
15398;SDS011;7797;51.428;6.756;2023-04-26T04:28:14;15.90;;;7.20;;
15398;SDS011;7797;51.428;6.756;2023-04-26T04:30:41;9.97;;;6.53;;
15398;SDS011;7797;51.428;6.756;2023-04-26T04:33:09;8.93;;;5.50;;
15398;SDS011;7797;51.428;6.756;2023-04-26T04:35:36;8.87;;;6.20;;
15398;SDS011;7797;51.428;6.756;2023-04-26T04:38:02;9.00;;;5.90;;
15398;SDS011;7797;51.428;6.756;2023-04-26T04:40:29;10.67;;;6.30;;
15398;SDS011;7797;51.428;6.756;2023-04-26T04:42:56;12.63;;;6.30;;
15398;SDS011;7797;51.428;6.756;2023-04-26T04:45:23;10.43;;;6.10;;
15398;SDS011;7797;51.428;6.756;2023-04-26T04:47:50;16.53;;;7.27;;
15398;SDS011;7797;51.428;6.756;2023-04-26T04:50:19;9.23;;;5.60;;
15398;SDS011;7797;51.428;6.756;2023-04-26T04:52:47;10.90;;;6.23;;
15398;SDS011;7797;51.428;6.756;2023-04-26T04:55:13;12.50;;;7.03;;
15398;SDS011;7797;51.428;6.756;2023-04-26T04:57:40;11.13;;;7.03;;
15398;SDS011;7797;51.428;6.756;2023-04-26T05:00:08;11.10;;;7.67;;
15398;SDS011;7797;51.428;6.756;2023-04-26T05:02:36;14.70;;;7.50;;
15398;SDS011;7797;51.428;6.756;2023-04-26T05:05:03;12.70;;;7.47;;
15398;SDS011;7797;51.428;6.756;2023-04-26T05:07:33;12.03;;;7.50;;
15398;SDS011;7797;51.428;6.756;2023-04-26T05:10:04;17.30;;;8.60;;
15398;SDS011;7797;51.428;6.756;2023-04-26T05:12:32;15.07;;;7.67;;
15398;SDS011;7797;51.428;6.756;2023-04-26T05:15:00;12.87;;;7.00;;
15398;SDS011;7797;51.428;6.756;2023-04-26T05:17:27;13.77;;;8.13;;
15398;SDS011;7797;51.428;6.756;2023-04-26T05:19:56;12.80;;;8.00;;
15398;SDS011;7797;51.428;6.756;2023-04-26T05:22:23;16.47;;;8.13;;
15398;SDS011;7797;51.428;6.756;2023-04-26T05:24:50;14.47;;;7.43;;
15398;SDS011;7797;51.428;6.756;2023-04-26T05:27:17;13.60;;;8.17;;
15398;SDS011;7797;51.428;6.756;2023-04-26T05:29:44;17.07;;;7.90;;
15398;SDS011;7797;51.428;6.756;2023-04-26T05:32:11;14.20;;;8.60;;
15398;SDS011;7797;51.428;6.756;2023-04-26T05:34:38;15.07;;;8.47;;
15398;SDS011;7797;51.428;6.756;2023-04-26T05:37:05;14.30;;;8.07;;
15398;SDS011;7797;51.428;6.756;2023-04-26T05:39:32;18.57;;;8.37;;
15398;SDS011;7797;51.428;6.756;2023-04-26T05:42:03;15.33;;;7.90;;
15398;SDS011;7797;51.428;6.756;2023-04-26T05:44:30;13.83;;;7.73;;
15398;SDS011;7797;51.428;6.756;2023-04-26T05:46:57;15.70;;;8.13;;
15398;SDS011;7797;51.428;6.756;2023-04-26T05:49:24;12.80;;;7.60;;
15398;SDS011;7797;51.428;6.756;2023-04-26T05:51:50;12.43;;;7.73;;
15398;SDS011;7797;51.428;6.756;2023-04-26T05:54:17;16.87;;;8.40;;
15398;SDS011;7797;51.428;6.756;2023-04-26T05:56:44;11.63;;;7.87;;
15398;SDS011;7797;51.428;6.756;2023-04-26T05:59:11;16.83;;;8.40;;
15398;SDS011;7797;51.428;6.756;2023-04-26T06:01:39;14.37;;;8.33;;
15398;SDS011;7797;51.428;6.756;2023-04-26T06:04:05;13.23;;;8.23;;
15398;SDS011;7797;51.428;6.756;2023-04-26T06:06:33;12.93;;;8.07;;
15398;SDS011;7797;51.428;6.756;2023-04-26T06:09:00;16.03;;;9.03;;
15398;SDS011;7797;51.428;6.756;2023-04-26T06:11:27;14.63;;;8.23;;
15398;SDS011;7797;51.428;6.756;2023-04-26T06:13:53;14.17;;;8.93;;
15398;SDS011;7797;51.428;6.756;2023-04-26T06:16:21;14.53;;;7.67;;
15398;SDS011;7797;51.428;6.756;2023-04-26T06:18:48;12.97;;;8.70;;
15398;SDS011;7797;51.428;6.756;2023-04-26T06:21:14;13.27;;;8.33;;
15398;SDS011;7797;51.428;6.756;2023-04-26T06:23:41;17.37;;;8.63;;
15398;SDS011;7797;51.428;6.756;2023-04-26T06:26:08;18.40;;;9.23;;
15398;SDS011;7797;51.428;6.756;2023-04-26T06:28:34;14.30;;;8.80;;
15398;SDS011;7797;51.428;6.756;2023-04-26T06:31:01;16.63;;;9.13;;
15398;SDS011;7797;51.428;6.756;2023-04-26T06:33:28;18.43;;;9.50;;
15398;SDS011;7797;51.428;6.756;2023-04-26T06:35:55;13.37;;;7.83;;
15398;SDS011;7797;51.428;6.756;2023-04-26T06:38:22;19.30;;;8.77;;
15398;SDS011;7797;51.428;6.756;2023-04-26T06:40:48;19.43;;;8.50;;
15398;SDS011;7797;51.428;6.756;2023-04-26T06:43:15;13.87;;;8.30;;
15398;SDS011;7797;51.428;6.756;2023-04-26T06:45:42;20.63;;;9.60;;
15398;SDS011;7797;51.428;6.756;2023-04-26T06:48:09;31.53;;;13.40;;
15398;SDS011;7797;51.428;6.756;2023-04-26T06:50:36;17.57;;;9.07;;
15398;SDS011;7797;51.428;6.756;2023-04-26T06:53:04;13.87;;;6.90;;
15398;SDS011;7797;51.428;6.756;2023-04-26T06:55:31;15.03;;;7.37;;
15398;SDS011;7797;51.428;6.756;2023-04-26T06:58:04;12.53;;;6.47;;
15398;SDS011;7797;51.428;6.756;2023-04-26T07:00:31;14.10;;;8.20;;
15398;SDS011;7797;51.428;6.756;2023-04-26T07:02:58;18.10;;;8.10;;
15398;SDS011;7797;51.428;6.756;2023-04-26T07:05:25;18.90;;;9.13;;
15398;SDS011;7797;51.428;6.756;2023-04-26T07:07:52;18.37;;;7.23;;
15398;SDS011;7797;51.428;6.756;2023-04-26T07:10:18;14.13;;;6.27;;
15398;SDS011;7797;51.428;6.756;2023-04-26T07:12:46;10.67;;;5.60;;
15398;SDS011;7797;51.428;6.756;2023-04-26T07:15:13;10.90;;;5.97;;
15398;SDS011;7797;51.428;6.756;2023-04-26T07:17:40;8.07;;;4.60;;
15398;SDS011;7797;51.428;6.756;2023-04-26T07:20:07;9.83;;;4.23;;
15398;SDS011;7797;51.428;6.756;2023-04-26T07:22:34;9.57;;;3.87;;
15398;SDS011;7797;51.428;6.756;2023-04-26T07:25:01;7.77;;;3.00;;
15398;SDS011;7797;51.428;6.756;2023-04-26T07:27:27;8.17;;;3.53;;
15398;SDS011;7797;51.428;6.756;2023-04-26T07:29:55;11.37;;;3.83;;
15398;SDS011;7797;51.428;6.756;2023-04-26T07:32:22;7.07;;;2.60;;
15398;SDS011;7797;51.428;6.756;2023-04-26T07:34:48;4.83;;;2.10;;
15398;SDS011;7797;51.428;6.756;2023-04-26T07:37:15;3.33;;;1.90;;
15398;SDS011;7797;51.428;6.756;2023-04-26T07:39:42;9.90;;;3.50;;
15398;SDS011;7797;51.428;6.756;2023-04-26T07:42:09;8.27;;;2.80;;
15398;SDS011;7797;51.428;6.756;2023-04-26T07:44:37;9.23;;;3.67;;
15398;SDS011;7797;51.428;6.756;2023-04-26T07:47:04;5.97;;;2.90;;
15398;SDS011;7797;51.428;6.756;2023-04-26T07:49:30;9.03;;;3.83;;
15398;SDS011;7797;51.428;6.756;2023-04-26T07:51:57;8.37;;;3.40;;
15398;SDS011;7797;51.428;6.756;2023-04-26T07:54:27;8.90;;;3.17;;
15398;SDS011;7797;51.428;6.756;2023-04-26T07:56:54;6.87;;;3.40;;
15398;SDS011;7797;51.428;6.756;2023-04-26T07:59:21;6.77;;;3.07;;
15398;SDS011;7797;51.428;6.756;2023-04-26T08:01:48;5.77;;;3.30;;
15398;SDS011;7797;51.428;6.756;2023-04-26T08:04:16;5.27;;;3.30;;
15398;SDS011;7797;51.428;6.756;2023-04-26T08:06:44;5.77;;;2.77;;
15398;SDS011;7797;51.428;6.756;2023-04-26T08:09:13;4.90;;;2.60;;
15398;SDS011;7797;51.428;6.756;2023-04-26T08:11:45;4.20;;;2.50;;
15398;SDS011;7797;51.428;6.756;2023-04-26T08:14:12;4.60;;;2.30;;
15398;SDS011;7797;51.428;6.756;2023-04-26T08:16:39;3.97;;;2.40;;
15398;SDS011;7797;51.428;6.756;2023-04-26T08:19:06;5.03;;;2.40;;
15398;SDS011;7797;51.428;6.756;2023-04-26T08:21:33;3.00;;;2.10;;
15398;SDS011;7797;51.428;6.756;2023-04-26T08:24:00;4.17;;;2.43;;
15398;SDS011;7797;51.428;6.756;2023-04-26T08:26:27;6.43;;;2.57;;
15398;SDS011;7797;51.428;6.756;2023-04-26T08:28:53;5.60;;;2.30;;
15398;SDS011;7797;51.428;6.756;2023-04-26T08:31:20;5.10;;;2.40;;
15398;SDS011;7797;51.428;6.756;2023-04-26T08:33:48;3.63;;;2.30;;
15398;SDS011;7797;51.428;6.756;2023-04-26T08:36:15;5.20;;;2.57;;
15398;SDS011;7797;51.428;6.756;2023-04-26T08:38:42;3.90;;;2.60;;
15398;SDS011;7797;51.428;6.756;2023-04-26T08:41:08;2.60;;;2.40;;
15398;SDS011;7797;51.428;6.756;2023-04-26T08:43:40;3.80;;;1.93;;
15398;SDS011;7797;51.428;6.756;2023-04-26T08:46:08;3.97;;;2.00;;
15398;SDS011;7797;51.428;6.756;2023-04-26T08:48:37;3.93;;;2.27;;
15398;SDS011;7797;51.428;6.756;2023-04-26T08:51:04;7.93;;;1.70;;
15398;SDS011;7797;51.428;6.756;2023-04-26T08:53:33;3.33;;;2.30;;
15398;SDS011;7797;51.428;6.756;2023-04-26T08:56:01;5.97;;;1.80;;
15398;SDS011;7797;51.428;6.756;2023-04-26T08:58:30;3.70;;;1.90;;
15398;SDS011;7797;51.428;6.756;2023-04-26T09:00:57;2.97;;;2.40;;
15398;SDS011;7797;51.428;6.756;2023-04-26T09:03:25;5.57;;;2.40;;
15398;SDS011;7797;51.428;6.756;2023-04-26T09:05:52;4.90;;;2.50;;
15398;SDS011;7797;51.428;6.756;2023-04-26T09:08:20;4.23;;;1.97;;
15398;SDS011;7797;51.428;6.756;2023-04-26T09:10:47;5.13;;;2.57;;
15398;SDS011;7797;51.428;6.756;2023-04-26T09:13:15;5.23;;;3.20;;
15398;SDS011;7797;51.428;6.756;2023-04-26T09:15:42;4.30;;;2.60;;
15398;SDS011;7797;51.428;6.756;2023-04-26T09:18:19;4.93;;;2.60;;
15398;SDS011;7797;51.428;6.756;2023-04-26T09:21:00;5.77;;;2.30;;
15398;SDS011;7797;51.428;6.756;2023-04-26T09:23:27;2.77;;;2.27;;
15398;SDS011;7797;51.428;6.756;2023-04-26T09:25:54;5.10;;;2.40;;
15398;SDS011;7797;51.428;6.756;2023-04-26T09:28:21;3.80;;;2.10;;
15398;SDS011;7797;51.428;6.756;2023-04-26T09:30:49;4.40;;;2.10;;
15398;SDS011;7797;51.428;6.756;2023-04-26T09:33:16;2.37;;;2.17;;
15398;SDS011;7797;51.428;6.756;2023-04-26T09:35:44;2.93;;;2.00;;
15398;SDS011;7797;51.428;6.756;2023-04-26T09:38:20;3.13;;;2.20;;
15398;SDS011;7797;51.428;6.756;2023-04-26T09:40:47;5.73;;;2.70;;
15398;SDS011;7797;51.428;6.756;2023-04-26T09:43:16;5.97;;;2.37;;
15398;SDS011;7797;51.428;6.756;2023-04-26T09:45:47;5.27;;;2.50;;
15398;SDS011;7797;51.428;6.756;2023-04-26T09:48:25;10.20;;;3.37;;
15398;SDS011;7797;51.428;6.756;2023-04-26T09:50:54;5.83;;;3.33;;
15398;SDS011;7797;51.428;6.756;2023-04-26T09:53:27;5.50;;;2.80;;
15398;SDS011;7797;51.428;6.756;2023-04-26T09:55:54;4.37;;;3.30;;
15398;SDS011;7797;51.428;6.756;2023-04-26T09:58:26;5.17;;;2.77;;
15398;SDS011;7797;51.428;6.756;2023-04-26T10:00:53;3.97;;;2.70;;
15398;SDS011;7797;51.428;6.756;2023-04-26T10:03:21;6.87;;;2.40;;
15398;SDS011;7797;51.428;6.756;2023-04-26T10:05:48;3.53;;;2.40;;
15398;SDS011;7797;51.428;6.756;2023-04-26T10:08:20;5.07;;;3.30;;
15398;SDS011;7797;51.428;6.756;2023-04-26T10:10:47;6.80;;;3.93;;
15398;SDS011;7797;51.428;6.756;2023-04-26T10:13:14;5.50;;;3.50;;
15398;SDS011;7797;51.428;6.756;2023-04-26T10:15:42;8.40;;;4.30;;
15398;SDS011;7797;51.428;6.756;2023-04-26T10:18:08;7.23;;;3.53;;
15398;SDS011;7797;51.428;6.756;2023-04-26T10:20:38;4.13;;;2.70;;
15398;SDS011;7797;51.428;6.756;2023-04-26T10:23:11;5.97;;;2.90;;
15398;SDS011;7797;51.428;6.756;2023-04-26T10:25:43;5.60;;;2.87;;
15398;SDS011;7797;51.428;6.756;2023-04-26T10:28:09;3.30;;;2.53;;
15398;SDS011;7797;51.428;6.756;2023-04-26T10:31:10;3.73;;;2.40;;
15398;SDS011;7797;51.428;6.756;2023-04-26T10:33:31;2.97;;;2.50;;
15398;SDS011;7797;51.428;6.756;2023-04-26T10:36:05;7.73;;;2.50;;
15398;SDS011;7797;51.428;6.756;2023-04-26T10:38:37;2.77;;;2.40;;
15398;SDS011;7797;51.428;6.756;2023-04-26T10:47:08;3.00;;;2.20;;
15398;SDS011;7797;51.428;6.756;2023-04-26T10:49:47;3.87;;;2.00;;
15398;SDS011;7797;51.428;6.756;2023-04-26T10:52:14;3.90;;;1.60;;
15398;SDS011;7797;51.428;6.756;2023-04-26T10:57:18;3.00;;;2.00;;
15398;SDS011;7797;51.428;6.756;2023-04-26T11:02:43;3.90;;;2.70;;
15398;SDS011;7797;51.428;6.756;2023-04-26T11:08:17;4.30;;;2.30;;
15398;SDS011;7797;51.428;6.756;2023-04-26T11:10:49;6.17;;;3.17;;
15398;SDS011;7797;51.428;6.756;2023-04-26T11:16:12;5.00;;;2.57;;
15398;SDS011;7797;51.428;6.756;2023-04-26T11:18:44;4.37;;;2.53;;
15398;SDS011;7797;51.428;6.756;2023-04-26T11:21:12;8.00;;;2.60;;
15398;SDS011;7797;51.428;6.756;2023-04-26T11:23:53;4.97;;;2.83;;
15398;SDS011;7797;51.428;6.756;2023-04-26T11:26:20;4.47;;;2.40;;
15398;SDS011;7797;51.428;6.756;2023-04-26T11:28:47;7.23;;;2.60;;
15398;SDS011;7797;51.428;6.756;2023-04-26T11:31:14;4.03;;;2.60;;
15398;SDS011;7797;51.428;6.756;2023-04-26T11:33:46;7.53;;;3.13;;
15398;SDS011;7797;51.428;6.756;2023-04-26T11:36:16;3.60;;;2.83;;
15398;SDS011;7797;51.428;6.756;2023-04-26T11:38:45;6.93;;;2.73;;
15398;SDS011;7797;51.428;6.756;2023-04-26T11:41:12;5.43;;;2.73;;
15398;SDS011;7797;51.428;6.756;2023-04-26T11:43:38;2.77;;;2.40;;
15398;SDS011;7797;51.428;6.756;2023-04-26T11:46:07;2.80;;;2.43;;
15398;SDS011;7797;51.428;6.756;2023-04-26T11:48:36;4.90;;;2.53;;
15398;SDS011;7797;51.428;6.756;2023-04-26T11:51:04;3.03;;;2.73;;
15398;SDS011;7797;51.428;6.756;2023-04-26T11:56:12;3.30;;;2.63;;
15398;SDS011;7797;51.428;6.756;2023-04-26T11:58:44;3.10;;;2.70;;
15398;SDS011;7797;51.428;6.756;2023-04-26T12:01:18;3.03;;;2.60;;
15398;SDS011;7797;51.428;6.756;2023-04-26T12:03:48;5.03;;;2.43;;
15398;SDS011;7797;51.428;6.756;2023-04-26T12:06:59;2.60;;;2.40;;
15398;SDS011;7797;51.428;6.756;2023-04-26T12:09:07;2.73;;;2.47;;
15398;SDS011;7797;51.428;6.756;2023-04-26T12:11:34;2.70;;;2.47;;
15398;SDS011;7797;51.428;6.756;2023-04-26T12:14:01;4.97;;;2.47;;
15398;SDS011;7797;51.428;6.756;2023-04-26T12:16:28;7.47;;;2.90;;
15398;SDS011;7797;51.428;6.756;2023-04-26T12:18:56;5.60;;;2.70;;
15398;SDS011;7797;51.428;6.756;2023-04-26T12:21:23;3.60;;;2.53;;
15398;SDS011;7797;51.428;6.756;2023-04-26T12:23:50;4.43;;;2.50;;
15398;SDS011;7797;51.428;6.756;2023-04-26T12:26:17;5.77;;;3.57;;
15398;SDS011;7797;51.428;6.756;2023-04-26T12:28:45;3.70;;;2.33;;
15398;SDS011;7797;51.428;6.756;2023-04-26T12:31:12;6.07;;;2.50;;
15398;SDS011;7797;51.428;6.756;2023-04-26T12:33:39;2.83;;;2.60;;
15398;SDS011;7797;51.428;6.756;2023-04-26T12:36:10;4.90;;;2.40;;
15398;SDS011;7797;51.428;6.756;2023-04-26T12:38:38;4.00;;;2.30;;
15398;SDS011;7797;51.428;6.756;2023-04-26T12:41:05;3.50;;;2.50;;
15398;SDS011;7797;51.428;6.756;2023-04-26T12:43:32;4.20;;;2.80;;
15398;SDS011;7797;51.428;6.756;2023-04-26T12:45:59;5.47;;;3.53;;
15398;SDS011;7797;51.428;6.756;2023-04-26T12:48:27;4.93;;;3.07;;
15398;SDS011;7797;51.428;6.756;2023-04-26T12:50:54;2.47;;;2.37;;
15398;SDS011;7797;51.428;6.756;2023-04-26T12:53:21;4.90;;;3.00;;
15398;SDS011;7797;51.428;6.756;2023-04-26T12:55:48;4.50;;;2.57;;
15398;SDS011;7797;51.428;6.756;2023-04-26T12:58:14;4.23;;;2.63;;
15398;SDS011;7797;51.428;6.756;2023-04-26T13:00:41;5.60;;;2.70;;
15398;SDS011;7797;51.428;6.756;2023-04-26T13:03:09;4.47;;;2.40;;
15398;SDS011;7797;51.428;6.756;2023-04-26T13:05:40;3.83;;;2.93;;
15398;SDS011;7797;51.428;6.756;2023-04-26T13:08:08;4.80;;;3.10;;
15398;SDS011;7797;51.428;6.756;2023-04-26T13:10:34;3.83;;;3.10;;
15398;SDS011;7797;51.428;6.756;2023-04-26T13:13:01;5.27;;;3.23;;
15398;SDS011;7797;51.428;6.756;2023-04-26T13:15:28;5.17;;;3.00;;
15398;SDS011;7797;51.428;6.756;2023-04-26T13:17:55;4.40;;;3.00;;
15398;SDS011;7797;51.428;6.756;2023-04-26T13:20:22;5.87;;;3.10;;
15398;SDS011;7797;51.428;6.756;2023-04-26T13:22:51;4.20;;;2.80;;
15398;SDS011;7797;51.428;6.756;2023-04-26T13:25:18;4.73;;;2.60;;
15398;SDS011;7797;51.428;6.756;2023-04-26T13:27:45;3.87;;;2.93;;
15398;SDS011;7797;51.428;6.756;2023-04-26T13:30:12;3.47;;;2.70;;
15398;SDS011;7797;51.428;6.756;2023-04-26T13:32:39;4.83;;;2.83;;
15398;SDS011;7797;51.428;6.756;2023-04-26T13:35:09;5.40;;;3.07;;
15398;SDS011;7797;51.428;6.756;2023-04-26T13:37:37;4.70;;;3.10;;
15398;SDS011;7797;51.428;6.756;2023-04-26T13:40:04;5.07;;;2.70;;
15398;SDS011;7797;51.428;6.756;2023-04-26T13:42:31;3.73;;;2.60;;
15398;SDS011;7797;51.428;6.756;2023-04-26T13:44:58;7.07;;;2.90;;
15398;SDS011;7797;51.428;6.756;2023-04-26T13:47:26;5.93;;;3.17;;
15398;SDS011;7797;51.428;6.756;2023-04-26T13:49:53;4.37;;;2.90;;
15398;SDS011;7797;51.428;6.756;2023-04-26T13:52:20;3.57;;;2.70;;
15398;SDS011;7797;51.428;6.756;2023-04-26T13:54:47;5.77;;;2.77;;
15398;SDS011;7797;51.428;6.756;2023-04-26T13:57:13;4.70;;;2.90;;
15398;SDS011;7797;51.428;6.756;2023-04-26T13:59:41;5.37;;;2.90;;
15398;SDS011;7797;51.428;6.756;2023-04-26T14:02:08;3.93;;;3.10;;
15398;SDS011;7797;51.428;6.756;2023-04-26T14:04:35;3.93;;;2.87;;
15398;SDS011;7797;51.428;6.756;2023-04-26T14:07:03;5.87;;;3.50;;
15398;SDS011;7797;51.428;6.756;2023-04-26T14:09:30;5.20;;;2.80;;
15398;SDS011;7797;51.428;6.756;2023-04-26T14:11:57;5.37;;;3.00;;
15398;SDS011;7797;51.428;6.756;2023-04-26T14:14:33;3.30;;;2.80;;
15398;SDS011;7797;51.428;6.756;2023-04-26T14:17:00;3.43;;;3.10;;
15398;SDS011;7797;51.428;6.756;2023-04-26T14:19:27;3.40;;;3.10;;
15398;SDS011;7797;51.428;6.756;2023-04-26T14:21:54;3.80;;;2.97;;
15398;SDS011;7797;51.428;6.756;2023-04-26T14:24:21;6.13;;;2.73;;
15398;SDS011;7797;51.428;6.756;2023-04-26T14:26:48;7.07;;;2.87;;
15398;SDS011;7797;51.428;6.756;2023-04-26T14:29:15;5.10;;;3.03;;
15398;SDS011;7797;51.428;6.756;2023-04-26T14:31:41;4.73;;;2.77;;
15398;SDS011;7797;51.428;6.756;2023-04-26T14:34:08;5.73;;;3.17;;
15398;SDS011;7797;51.428;6.756;2023-04-26T14:36:35;4.00;;;2.80;;
15398;SDS011;7797;51.428;6.756;2023-04-26T14:39:03;6.90;;;3.17;;
15398;SDS011;7797;51.428;6.756;2023-04-26T14:41:31;5.27;;;2.90;;
15398;SDS011;7797;51.428;6.756;2023-04-26T14:43:57;7.53;;;3.30;;
15398;SDS011;7797;51.428;6.756;2023-04-26T14:46:24;5.10;;;2.90;;
15398;SDS011;7797;51.428;6.756;2023-04-26T14:48:51;4.00;;;2.87;;
15398;SDS011;7797;51.428;6.756;2023-04-26T14:51:17;4.23;;;2.57;;
15398;SDS011;7797;51.428;6.756;2023-04-26T14:53:44;4.60;;;2.73;;
15398;SDS011;7797;51.428;6.756;2023-04-26T14:56:11;3.47;;;2.87;;
15398;SDS011;7797;51.428;6.756;2023-04-26T14:58:38;3.90;;;2.60;;
15398;SDS011;7797;51.428;6.756;2023-04-26T15:01:06;6.20;;;3.90;;
15398;SDS011;7797;51.428;6.756;2023-04-26T15:03:33;3.87;;;3.43;;
15398;SDS011;7797;51.428;6.756;2023-04-26T15:06:00;6.63;;;2.93;;
15398;SDS011;7797;51.428;6.756;2023-04-26T15:08:27;5.13;;;3.20;;
15398;SDS011;7797;51.428;6.756;2023-04-26T15:10:53;5.77;;;3.37;;
15398;SDS011;7797;51.428;6.756;2023-04-26T15:13:20;3.50;;;3.00;;
15398;SDS011;7797;51.428;6.756;2023-04-26T15:15:47;3.83;;;3.07;;
15398;SDS011;7797;51.428;6.756;2023-04-26T15:18:14;5.80;;;3.03;;
15398;SDS011;7797;51.428;6.756;2023-04-26T15:20:41;9.53;;;3.37;;